createdAt,value
2022-08-11T01:35:52.453Z,99.99
2022-08-11T01:36:53.601Z,99.99
2022-08-11T02:30:47.996Z,99.99
2022-08-11T02:43:23.829Z,99.99
2022-08-11T03:22:02.578Z,99.99
2022-08-11T05:29:08.278Z,99.99
2022-08-11T05:29:59.888Z,99.99
2022-08-11T05:37:23.804Z,99.99
2022-08-11T05:37:55.520Z,99.99
2022-08-11T05:38:54.500Z,99.99
2022-08-11T05:39:54.518Z,99.99
2022-08-11T05:41:00.308Z,99.99
2022-08-11T05:46:37.340Z,99.99
2022-08-11T05:47:38.186Z,99.99
2022-08-11T05:48:35.836Z,99.99
2022-08-11T05:49:35.930Z,99.99
2022-08-11T05:50:37.251Z,99.99
2022-08-11T05:51:36.524Z,99.99
2022-08-11T05:54:57.526Z,99.99
2022-08-11T06:01:17.431Z,99.99
2022-08-11T06:15:30.629Z,84.25
2022-08-11T06:16:30.280Z,84.11
2022-08-11T06:17:38.899Z,82.31
2022-08-11T06:18:30.900Z,83.81
2022-08-11T06:19:29.876Z,82.77
2022-08-11T06:20:29.785Z,81.43
2022-08-11T06:21:30.061Z,80.83
2022-08-11T06:22:29.812Z,79.09
2022-08-11T06:23:29.736Z,78.99
2022-08-11T06:24:30.049Z,78.25
2022-08-11T06:40:16.278Z,66.24
2022-08-11T06:40:36.361Z,64.45
2022-08-11T06:59:17.099Z,59.94
2022-08-11T07:00:06.608Z,58.75
2022-08-11T07:01:06.557Z,59.81
2022-08-11T07:02:06.431Z,58.92
2022-08-11T07:03:06.451Z,59.32
2022-08-11T07:04:06.403Z,58.40
2022-08-11T07:05:06.473Z,59.39
2022-08-11T07:06:06.353Z,58.20
2022-08-11T07:07:06.359Z,58.07
2022-08-11T07:08:33.238Z,57.29
2022-08-11T07:09:07.388Z,55.13
2022-08-11T07:10:06.353Z,55.90
2022-08-11T07:11:06.302Z,57.06
2022-08-11T07:12:06.375Z,55.68
2022-08-11T07:13:06.275Z,54.61
2022-08-11T07:14:06.256Z,58.57
2022-08-11T07:15:06.276Z,56.30
2022-08-11T07:16:11.180Z,55.51
2022-08-11T07:17:07.344Z,57.29
2022-08-11T07:18:06.237Z,57.56
2022-08-11T07:19:06.199Z,56.24
2022-08-11T07:42:43.297Z,49.99
2022-08-11T08:10:08.381Z,47.07
2022-08-11T08:11:08.198Z,49.13
2022-08-11T08:12:07.981Z,48.43
2022-08-11T08:13:07.828Z,47.22
2022-08-11T08:14:07.695Z,48.57
2022-08-11T08:15:07.667Z,46.00
2022-08-11T08:16:07.676Z,46.17
2022-08-11T08:17:07.678Z,45.39
2022-08-11T08:18:09.217Z,46.17
2022-08-11T08:19:08.644Z,45.86
2022-08-11T08:20:07.628Z,42.70
2022-08-11T08:21:07.586Z,45.83
2022-08-11T08:22:38.228Z,43.58
2022-08-11T08:23:08.656Z,43.31
2022-08-11T08:24:07.568Z,46.95
2022-08-11T08:25:07.529Z,47.33
2022-08-11T08:37:44.955Z,44.87
2022-08-11T08:38:41.035Z,45.36
2022-08-11T08:39:39.616Z,43.89
2022-08-11T08:40:39.799Z,42.61
2022-08-11T08:41:39.138Z,44.38
2022-08-11T08:42:44.398Z,43.20
2022-08-11T08:43:49.164Z,44.59
2022-08-11T08:44:41.502Z,44.87
2022-08-11T08:45:39.110Z,43.99
2022-08-11T08:46:39.117Z,43.20
2022-08-11T08:47:43.149Z,42.40
2022-08-11T08:48:39.055Z,39.84
2022-08-11T08:49:40.477Z,42.65
2022-08-11T08:50:39.058Z,41.66
2022-08-11T08:51:58.657Z,40.88
2022-08-11T08:52:43.694Z,41.36
2022-08-11T08:53:39.047Z,39.43
2022-08-11T08:54:40.064Z,40.31
2022-08-11T08:55:43.611Z,41.21
2022-08-11T08:56:40.137Z,43.65
2022-08-11T08:57:40.260Z,44.12
2022-08-11T08:58:38.989Z,43.12
2022-08-11T08:59:48.694Z,41.27
2022-08-11T09:02:12.430Z,39.57
2022-08-11T09:03:36.641Z,39.75
2022-08-11T09:04:12.216Z,39.75
2022-08-11T09:05:10.573Z,38.65
2022-08-11T09:06:09.753Z,37.68
2022-08-11T09:07:10.730Z,38.64
2022-08-11T09:08:09.686Z,38.75
2022-08-11T09:09:09.646Z,37.97
2022-08-11T09:10:09.674Z,35.25
2022-08-11T09:11:13.615Z,35.93
2022-08-11T09:12:09.634Z,35.75
2022-08-11T09:13:09.586Z,38.38
2022-08-11T09:14:14.938Z,38.09
2022-08-11T09:15:10.735Z,39.55
2022-08-11T09:16:09.559Z,35.85
2022-08-11T09:17:09.569Z,36.43
2022-08-11T09:18:09.617Z,39.67
2022-08-11T09:19:09.822Z,39.84
2022-08-11T09:20:09.637Z,39.36
2022-08-11T09:21:09.539Z,36.71
2022-08-11T09:22:09.529Z,37.46
2022-08-11T09:24:06.621Z,36.87
2022-08-11T09:24:17.046Z,35.00
2022-08-11T09:25:10.488Z,35.49
2022-08-11T09:26:09.512Z,36.55
2022-08-11T09:27:09.481Z,34.90
2022-08-11T09:28:09.635Z,34.50
2022-08-11T09:29:09.537Z,35.86
2022-08-11T09:30:11.189Z,34.40
2022-08-11T09:31:09.581Z,34.38
2022-08-11T09:32:09.427Z,33.99
2022-08-11T09:39:59.429Z,33.81
2022-08-11T09:41:04.752Z,35.68
2022-08-11T09:43:15.287Z,31.88
2022-08-11T09:52:15.609Z,32.78
2022-08-11T09:53:36.355Z,31.62
2022-08-11T09:54:16.127Z,32.89
2022-08-11T09:55:14.995Z,34.16
2022-08-11T09:56:15.007Z,35.51
2022-08-11T09:57:14.976Z,33.18
2022-08-11T09:58:41.907Z,33.67
2022-08-11T09:59:15.957Z,33.56
2022-08-11T10:00:15.021Z,31.32
2022-08-11T10:01:14.986Z,31.82
2022-08-11T10:02:14.909Z,34.06
2022-08-11T10:03:14.907Z,33.65
2022-08-11T10:04:14.906Z,32.00
2022-08-11T10:05:14.879Z,30.74
2022-08-11T10:06:14.877Z,34.89
2022-08-11T10:14:33.749Z,31.76
2022-08-11T10:15:22.880Z,32.81
2022-08-11T10:16:21.559Z,32.62
2022-08-11T10:17:21.328Z,31.56
2022-08-11T10:18:21.306Z,32.14
2022-08-11T10:19:21.307Z,30.10
2022-08-11T10:20:25.662Z,31.18
2022-08-11T10:21:21.258Z,32.24
2022-08-11T10:22:21.248Z,32.82
2022-08-11T10:23:21.228Z,31.10
2022-08-11T10:24:21.241Z,31.31
2022-08-11T10:25:21.275Z,31.50
2022-08-11T10:26:21.347Z,31.68
2022-08-11T10:27:22.041Z,30.89
2022-08-11T10:28:36.438Z,32.54
2022-08-11T10:29:22.166Z,30.88
2022-08-11T10:30:21.147Z,31.26
2022-08-11T10:31:21.155Z,32.02
2022-08-11T10:32:21.120Z,29.80
2022-08-11T10:33:37.715Z,30.10
2022-08-11T10:34:22.149Z,31.37
2022-08-11T10:35:21.125Z,31.59
2022-08-11T10:36:21.080Z,31.49
2022-08-11T10:37:21.102Z,30.24
2022-08-11T10:38:21.054Z,31.12
2022-08-11T10:39:21.131Z,31.31
2022-08-11T10:40:21.071Z,31.01
2022-08-11T10:41:21.041Z,31.39
2022-08-11T10:42:41.471Z,31.20
2022-08-11T10:44:01.534Z,32.46
2022-08-11T10:44:22.008Z,30.73
2022-08-11T10:45:20.974Z,32.07
2022-08-11T10:46:29.580Z,31.09
2022-08-11T10:47:21.981Z,31.09
2022-08-11T10:48:20.934Z,30.51
2022-08-11T10:49:20.933Z,29.91
2022-08-11T10:50:20.975Z,30.10
2022-08-11T10:51:50.682Z,30.57
2022-08-11T10:52:21.889Z,30.38
2022-08-11T10:53:20.916Z,32.20
2022-08-11T10:54:21.197Z,28.92
2022-08-11T10:55:20.911Z,28.73
2022-08-11T10:56:20.871Z,31.71
2022-08-11T10:57:20.874Z,29.39
2022-08-11T10:58:20.832Z,30.08
2022-08-11T10:59:20.832Z,30.86
2022-08-11T11:00:20.847Z,30.36
2022-08-11T11:01:20.836Z,30.55
2022-08-11T11:02:20.853Z,28.80
2022-08-11T11:03:22.842Z,31.91
2022-08-11T11:04:20.803Z,28.14
2022-08-11T11:05:20.944Z,29.09
2022-08-11T11:06:29.244Z,28.12
2022-08-11T11:07:21.986Z,30.63
2022-08-11T11:08:20.857Z,30.17
2022-08-11T11:11:56.548Z,30.88
2022-08-11T11:12:57.040Z,29.03
2022-08-11T11:13:57.351Z,29.52
2022-08-11T11:14:59.001Z,30.29
2022-08-11T11:19:46.042Z,30.38
2022-08-11T11:20:47.712Z,30.08
2022-08-11T11:21:46.481Z,29.99
2022-08-11T11:22:45.492Z,28.14
2022-08-11T11:23:45.524Z,28.70
2022-08-11T11:24:45.559Z,28.50
2022-08-11T11:25:45.454Z,30.03
2022-08-11T11:26:45.510Z,26.93
2022-08-11T11:27:46.577Z,27.42
2022-08-11T11:28:45.533Z,29.35
2022-08-11T11:29:45.421Z,28.08
2022-08-11T11:30:45.457Z,29.05
2022-08-11T11:31:45.377Z,29.24
2022-08-11T11:32:49.116Z,26.72
2022-08-11T11:34:06.891Z,27.98
2022-08-11T11:34:53.182Z,27.31
2022-08-11T11:35:46.350Z,25.90
2022-08-11T11:36:45.524Z,29.28
2022-08-11T11:38:03.646Z,28.12
2022-08-11T11:38:46.462Z,28.23
2022-08-11T11:39:45.442Z,28.41
2022-08-11T11:40:45.289Z,27.08
2022-08-11T11:41:45.402Z,29.32
2022-08-11T11:42:45.343Z,29.30
2022-08-11T11:43:45.376Z,29.10
2022-08-11T11:44:45.224Z,29.47
2022-08-11T11:45:45.248Z,29.67
2022-08-11T11:46:45.301Z,27.26
2022-08-11T11:47:45.422Z,29.28
2022-08-11T11:48:45.241Z,26.78
2022-08-11T11:49:45.314Z,26.97
2022-08-11T11:50:45.195Z,28.89
2022-08-11T11:51:45.583Z,27.45
2022-08-11T11:52:45.363Z,29.38
2022-08-11T11:53:46.265Z,28.03
2022-08-11T11:54:45.157Z,27.17
2022-08-11T11:55:45.222Z,28.22
2022-08-11T11:56:45.108Z,28.02
2022-08-11T11:57:58.808Z,28.37
2022-08-11T11:58:46.133Z,27.22
2022-08-11T11:59:45.140Z,26.62
2022-08-11T12:00:45.089Z,26.53
2022-08-11T12:01:47.050Z,27.59
2022-08-11T12:02:46.039Z,28.74
2022-08-11T12:03:45.047Z,29.42
2022-08-11T12:04:45.714Z,27.67
2022-08-11T12:05:44.992Z,28.07
2022-08-11T12:06:44.971Z,28.25
2022-08-11T12:07:45.013Z,26.80
2022-08-11T12:08:45.979Z,28.07
2022-08-11T12:09:44.941Z,27.81
2022-08-11T12:10:44.958Z,27.22
2022-08-11T12:11:44.922Z,27.20
2022-08-11T12:12:44.962Z,27.49
2022-08-11T12:13:44.903Z,25.09
2022-08-11T12:14:44.895Z,27.31
2022-08-11T12:16:33.250Z,26.90
2022-08-11T12:16:45.878Z,28.14
2022-08-11T12:17:44.853Z,25.04
2022-08-11T12:18:44.847Z,25.15
2022-08-11T12:19:48.347Z,26.00
2022-08-11T12:20:45.035Z,26.69
2022-08-11T12:21:44.826Z,26.78
2022-08-11T12:22:45.805Z,25.60
2022-08-11T12:23:44.807Z,27.33
2022-08-11T12:24:45.094Z,25.40
2022-08-11T22:12:34.324Z,78.96
2022-08-11T22:13:16.084Z,79.60
2022-08-11T22:28:47.456Z,79.29
2022-08-11T22:29:51.007Z,78.89
2022-08-11T22:30:47.276Z,78.89
2022-08-11T22:31:47.237Z,78.39
2022-08-11T22:32:47.226Z,78.69
2022-08-11T22:34:02.711Z,78.19
2022-08-11T22:34:53.339Z,78.08
2022-08-11T22:35:48.186Z,78.19
2022-08-11T22:36:47.207Z,79.19
2022-08-11T22:37:47.170Z,78.59
2022-08-11T22:38:47.169Z,79.49
2022-08-11T22:40:02.720Z,79.80
2022-08-11T22:40:48.207Z,79.80
2022-08-11T22:41:47.132Z,79.53
2022-08-11T22:42:52.331Z,80.44
2022-08-11T22:43:47.093Z,80.04
2022-08-11T22:44:47.241Z,80.64
2022-08-11T22:45:47.091Z,81.48
2022-08-11T22:46:47.021Z,81.68
2022-08-11T22:47:47.021Z,82.09
2022-08-11T22:48:47.002Z,82.39
2022-08-11T22:49:57.420Z,82.50
2022-08-11T22:50:47.972Z,82.59
2022-08-11T22:51:47.029Z,82.93
2022-08-11T22:52:47.323Z,83.24
2022-08-11T22:53:57.164Z,82.73
2022-08-11T22:54:47.913Z,83.44
2022-08-11T22:55:46.949Z,84.25
2022-08-11T22:56:46.978Z,83.98
2022-08-11T22:58:00.925Z,83.98
2022-08-11T22:58:47.872Z,83.58
2022-08-11T22:59:46.849Z,84.39
2022-08-11T23:00:46.888Z,84.73
2022-08-11T23:01:56.413Z,85.03
2022-08-11T23:02:48.608Z,85.24
2022-08-11T23:03:46.787Z,85.14
2022-08-11T23:04:53.123Z,85.08
2022-08-11T23:05:47.808Z,85.38
2022-08-11T23:06:46.808Z,86.08
2022-08-11T23:07:50.735Z,85.68
2022-08-11T23:08:47.725Z,85.88
2022-08-11T23:09:46.766Z,86.83
2022-08-11T23:10:46.732Z,86.63
2022-08-11T23:12:05.880Z,87.04
2022-08-11T23:12:47.680Z,86.93
2022-08-11T23:13:46.640Z,87.48
2022-08-11T23:14:46.720Z,87.08
2022-08-11T23:15:46.729Z,87.18
2022-08-11T23:16:46.647Z,87.58
2022-08-11T23:17:46.612Z,87.88
2022-08-11T23:18:49.911Z,87.28
2022-08-11T23:20:08.734Z,87.08
2022-08-11T23:20:54.875Z,87.38
2022-08-11T23:21:47.531Z,86.87
2022-08-11T23:22:49.769Z,86.47
2022-08-11T23:23:46.582Z,86.87
2022-08-11T23:24:46.582Z,86.77
2022-08-11T23:25:46.663Z,86.87
2022-08-11T23:26:46.481Z,86.87
2022-08-11T23:27:46.451Z,85.96
2022-08-11T23:28:46.493Z,86.47
2022-08-11T23:29:46.412Z,86.77
2022-08-11T23:30:46.410Z,86.67
2022-08-11T23:31:50.647Z,86.37
2022-08-11T23:32:47.434Z,86.07
2022-08-11T23:33:46.364Z,85.76
2022-08-11T23:35:37.038Z,86.77
2022-08-11T23:35:53.976Z,86.27
2022-08-11T23:36:48.086Z,86.16
2022-08-11T23:37:46.388Z,86.57
2022-08-11T23:38:46.305Z,86.98
2022-08-11T23:39:46.366Z,87.18
2022-08-11T23:40:46.304Z,86.91
2022-08-11T23:41:46.352Z,87.22
2022-08-11T23:42:46.350Z,87.22
2022-08-11T23:43:46.226Z,87.02
2022-08-11T23:44:46.247Z,87.12
2022-08-11T23:45:46.217Z,87.12
2022-08-11T23:46:46.177Z,86.91
2022-08-11T23:47:50.396Z,87.62
2022-08-11T23:48:46.128Z,87.22
2022-08-11T23:49:46.165Z,87.12
2022-08-11T23:50:46.121Z,87.22
2022-08-11T23:51:46.117Z,87.36
2022-08-11T23:52:46.100Z,87.66
2022-08-11T23:53:46.119Z,87.66
2022-08-11T23:54:46.168Z,87.66
2022-08-11T23:55:46.091Z,87.66
2022-08-11T23:56:46.022Z,87.97
2022-08-11T23:57:48.927Z,87.32
2022-08-11T23:58:46.031Z,86.82
2022-08-11T23:59:45.980Z,87.22
